< < Back
Terminal Aerodrome Forecast


Current Version              Previous Versions:   1  2  3  4  5  6  7  8  9  

Terminal Aerodrome Forecast

834
FTUS44 KBMX 211700
TAFMGM
TAF
KMGM 211727Z 2118/2218 28005KT P6SM SCT045=

Latest METAR

388
SAUS80 KWBC 221100 RRB
MTRMGM
METAR KMGM 221053Z AUTO 23003KT 8SM CLR 24/23 A3008 RMK AO2 SLP180
T02440228


USA.gov is the U.S. government's official web portal to all federal, state and local government web resources and services.